createdAt,value
2018-12-26T00:00:37.526Z,26.20
2018-12-26T00:03:06.893Z,27.60
2018-12-26T00:05:36.207Z,27.90
2018-12-26T00:08:05.600Z,28.93
2018-12-26T00:10:35.001Z,28.50
2018-12-26T00:13:04.391Z,26.27
2018-12-26T00:15:33.717Z,24.57
2018-12-26T00:18:03.142Z,22.20
2018-12-26T00:20:32.667Z,18.73
2018-12-26T00:23:02.231Z,18.13
2018-12-26T00:25:32.634Z,22.43
2018-12-26T00:28:02.123Z,22.97
2018-12-26T00:30:31.563Z,22.03
2018-12-26T00:33:00.947Z,24.33
2018-12-26T00:35:30.630Z,23.27
2018-12-26T00:38:00.019Z,25.23
2018-12-26T00:40:29.415Z,20.70
2018-12-26T00:42:58.908Z,25.60
2018-12-26T00:45:28.409Z,21.80
2018-12-26T00:47:57.786Z,24.53
2018-12-26T00:50:27.078Z,28.53
2018-12-26T00:52:56.554Z,27.83
2018-12-26T00:55:26.066Z,28.30
2018-12-26T00:57:55.479Z,29.43
2018-12-26T01:00:24.872Z,29.20
2018-12-26T01:02:54.462Z,27.30
2018-12-26T01:05:23.806Z,27.87
2018-12-26T01:07:53.386Z,29.30
2018-12-26T01:10:23.041Z,28.73
2018-12-26T01:12:52.339Z,28.67
2018-12-26T01:15:21.827Z,24.87
2018-12-26T01:17:51.187Z,25.70
2018-12-26T01:20:20.518Z,26.33
2018-12-26T01:22:49.839Z,21.77
2018-12-26T01:25:19.217Z,23.30
2018-12-26T01:27:48.598Z,21.83
2018-12-26T01:30:17.841Z,23.47
2018-12-26T01:32:47.311Z,27.13
2018-12-26T01:35:16.570Z,22.77
2018-12-26T01:37:45.932Z,24.33
2018-12-26T01:40:15.418Z,27.53
2018-12-26T01:42:44.701Z,28.80
2018-12-26T01:45:14.276Z,28.43
2018-12-26T01:47:43.589Z,29.43
2018-12-26T01:50:12.871Z,21.60
2018-12-26T01:52:42.529Z,18.30
2018-12-26T01:55:11.937Z,21.97
2018-12-26T01:57:41.266Z,24.50
2018-12-26T02:00:10.780Z,25.27
2018-12-26T02:02:40.191Z,25.37
2018-12-26T02:05:09.562Z,24.40
2018-12-26T02:07:39.240Z,27.60
2018-12-26T02:10:08.663Z,25.03
2018-12-26T02:12:37.960Z,25.50
2018-12-26T02:15:07.358Z,21.20
2018-12-26T02:17:36.723Z,25.37
2018-12-26T02:20:06.986Z,24.43
2018-12-26T02:22:36.323Z,22.03
2018-12-26T02:25:06.395Z,21.53
2018-12-26T02:27:35.695Z,24.07
2018-12-26T02:30:05.925Z,20.90
2018-12-26T02:32:35.500Z,20.53
2018-12-26T02:35:05.264Z,22.13
2018-12-26T02:37:35.592Z,24.33
2018-12-26T02:40:06.289Z,24.77
2018-12-26T02:42:35.751Z,20.70
2018-12-26T02:45:05.953Z,23.03
2018-12-26T02:47:35.310Z,25.23
2018-12-26T02:50:05.660Z,27.70
2018-12-26T02:52:34.881Z,26.93
2018-12-26T02:55:04.330Z,27.10
2018-12-26T02:57:33.766Z,27.67
2018-12-26T03:00:03.307Z,26.47
2018-12-26T03:02:32.756Z,21.30
2018-12-26T03:05:02.192Z,27.13
2018-12-26T03:07:31.537Z,27.60
2018-12-26T03:10:01.094Z,28.27
2018-12-26T03:12:30.559Z,23.77
2018-12-26T03:15:00.146Z,28.57
2018-12-26T03:17:29.730Z,26.57
2018-12-26T03:19:58.991Z,25.23
2018-12-26T03:22:28.489Z,27.03
2018-12-26T03:24:57.792Z,25.90
2018-12-26T03:27:27.072Z,28.33
2018-12-26T03:29:56.552Z,28.60
2018-12-26T03:32:26.130Z,28.47
2018-12-26T03:34:55.744Z,26.27
2018-12-26T03:37:25.114Z,25.43
2018-12-26T03:39:54.616Z,27.90
2018-12-26T03:42:24.001Z,26.80
2018-12-26T03:44:54.120Z,29.57
2018-12-26T03:47:23.520Z,25.43
2018-12-26T03:49:52.925Z,25.10
2018-12-26T03:52:22.437Z,26.77
2018-12-26T03:54:51.923Z,22.27
2018-12-26T03:57:21.294Z,25.40
2018-12-26T03:59:50.649Z,21.90
2018-12-26T04:02:20.322Z,28.47
2018-12-26T04:04:49.741Z,26.87
2018-12-26T04:07:19.331Z,23.60
2018-12-26T04:09:48.901Z,26.70
2018-12-26T04:12:18.299Z,25.53
2018-12-26T04:14:47.847Z,15.77
2018-12-26T04:17:17.506Z,25.00
2018-12-26T04:19:47.114Z,21.70
2018-12-26T04:22:16.774Z,23.07
2018-12-26T04:24:48.395Z,16.13
2018-12-26T04:27:17.843Z,18.80
2018-12-26T04:29:47.191Z,21.47
2018-12-26T04:32:16.642Z,22.33
2018-12-26T04:34:46.167Z,21.07
2018-12-26T04:37:15.747Z,24.33
2018-12-26T04:39:45.098Z,20.37
2018-12-26T04:42:14.511Z,24.30
2018-12-26T04:44:43.955Z,24.13
2018-12-26T04:47:13.508Z,23.50
2018-12-26T04:49:42.931Z,24.17
2018-12-26T04:52:12.372Z,25.77
2018-12-26T04:54:41.711Z,23.17
2018-12-26T04:57:11.296Z,22.10
2018-12-26T04:59:40.719Z,24.37
2018-12-26T05:02:10.294Z,23.97
2018-12-26T05:04:39.840Z,21.57
2018-12-26T05:07:09.227Z,23.70
2018-12-26T05:09:38.531Z,24.27
2018-12-26T05:12:08.194Z,23.13
2018-12-26T05:14:37.594Z,21.93
2018-12-26T05:17:07.116Z,23.17
2018-12-26T05:19:36.360Z,21.33
2018-12-26T05:22:05.828Z,22.40
2018-12-26T05:24:35.304Z,20.80
2018-12-26T05:27:04.696Z,20.83
2018-12-26T05:29:34.100Z,21.30
2018-12-26T05:32:03.548Z,19.13
2018-12-26T05:34:32.969Z,19.60
2018-12-26T05:37:02.455Z,18.53
2018-12-26T05:39:31.940Z,19.70
2018-12-26T05:42:01.479Z,21.03
2018-12-26T05:44:30.899Z,18.77
2018-12-26T05:47:00.315Z,17.07
2018-12-26T05:49:29.696Z,19.43
2018-12-26T05:51:59.045Z,19.40
2018-12-26T05:54:28.568Z,18.47
2018-12-26T05:56:57.917Z,20.57
2018-12-26T05:59:27.226Z,20.77
2018-12-26T06:01:56.579Z,19.53
2018-12-26T06:04:25.953Z,19.80
2018-12-26T06:06:55.483Z,20.33
2018-12-26T06:09:24.899Z,18.03
2018-12-26T06:11:54.314Z,23.03
2018-12-26T06:14:23.743Z,18.87
2018-12-26T06:16:53.185Z,18.43
2018-12-26T06:19:22.544Z,18.67
2018-12-26T06:21:52.202Z,18.57
2018-12-26T06:24:21.637Z,19.70
2018-12-26T06:26:50.987Z,23.27
2018-12-26T06:29:20.446Z,22.30
2018-12-26T06:31:49.865Z,28.20
2018-12-26T06:34:19.357Z,24.30
2018-12-26T06:36:48.732Z,29.57
2018-12-26T06:39:18.152Z,25.07
2018-12-26T06:41:47.571Z,26.17
2018-12-26T06:44:17.040Z,21.20
2018-12-26T06:46:46.575Z,21.27
2018-12-26T06:49:16.065Z,23.93
2018-12-26T06:51:45.457Z,22.03
2018-12-26T06:54:14.829Z,23.60
2018-12-26T06:56:44.188Z,23.47
2018-12-26T06:59:13.544Z,21.63
2018-12-26T07:01:42.980Z,18.80
2018-12-26T07:04:12.363Z,19.77
2018-12-26T07:06:41.868Z,16.77
2018-12-26T07:09:11.255Z,19.87
2018-12-26T07:11:40.600Z,21.53
2018-12-26T07:14:10.116Z,21.17
2018-12-26T07:16:39.501Z,20.70
2018-12-26T07:19:08.907Z,20.37
2018-12-26T07:21:38.587Z,17.00
2018-12-26T07:24:08.324Z,17.97
2018-12-26T07:26:37.732Z,18.13
2018-12-26T07:29:07.247Z,21.43
2018-12-26T07:31:36.735Z,19.90
2018-12-26T07:34:06.074Z,15.90
2018-12-26T07:36:35.628Z,19.20
2018-12-26T07:39:06.939Z,20.60
2018-12-26T07:41:36.488Z,15.33
2018-12-26T07:44:05.928Z,20.87
2018-12-26T07:46:35.246Z,14.73
2018-12-26T07:49:04.684Z,18.13
2018-12-26T07:51:33.971Z,15.63
2018-12-26T07:54:03.351Z,19.53
2018-12-26T07:56:32.712Z,21.20
2018-12-26T07:59:02.228Z,18.43
2018-12-26T08:01:31.600Z,18.27
2018-12-26T08:04:01.041Z,18.50
2018-12-26T08:06:30.609Z,20.20
2018-12-26T08:08:59.941Z,22.57
2018-12-26T08:11:29.238Z,20.80
2018-12-26T08:13:58.593Z,21.90
2018-12-26T08:16:28.005Z,20.17
2018-12-26T08:18:57.446Z,20.10
2018-12-26T08:21:26.876Z,19.20
2018-12-26T08:23:56.304Z,18.43
2018-12-26T08:26:25.673Z,22.10
2018-12-26T08:28:55.225Z,21.97
2018-12-26T08:31:24.603Z,17.67
2018-12-26T08:33:54.040Z,21.47
2018-12-26T08:36:23.429Z,23.33
2018-12-26T08:38:52.825Z,21.37
2018-12-26T08:41:22.258Z,22.77
2018-12-26T08:43:51.678Z,21.00
2018-12-26T08:46:21.058Z,23.17
2018-12-26T08:48:50.595Z,23.50
2018-12-26T08:51:20.190Z,22.97
2018-12-26T08:53:49.842Z,25.63
2018-12-26T08:56:19.127Z,23.30
2018-12-26T08:58:48.929Z,21.40
2018-12-26T09:01:18.335Z,22.03
2018-12-26T09:03:47.733Z,23.93
2018-12-26T09:06:17.032Z,24.87
2018-12-26T09:08:46.443Z,23.43
2018-12-26T09:11:15.852Z,30.50
2018-12-26T09:13:45.081Z,27.27
2018-12-26T09:16:14.500Z,26.77
2018-12-26T09:18:43.923Z,26.80
2018-12-26T09:21:13.224Z,24.63
2018-12-26T09:23:42.493Z,28.80
2018-12-26T09:26:13.137Z,28.10
2018-12-26T09:28:43.884Z,29.77
2018-12-26T09:31:13.713Z,30.80
2018-12-26T09:33:43.038Z,30.33
2018-12-26T09:36:12.624Z,29.10
2018-12-26T09:38:42.157Z,32.50
2018-12-26T09:41:11.501Z,28.13
2018-12-26T09:43:40.890Z,29.20
2018-12-26T09:46:10.335Z,31.37
2018-12-26T09:48:39.737Z,31.77
2018-12-26T09:51:09.295Z,33.60
2018-12-26T09:53:38.713Z,33.27
2018-12-26T09:56:08.012Z,32.30
2018-12-26T09:58:37.403Z,26.53
2018-12-26T10:01:06.827Z,30.83
2018-12-26T10:03:36.358Z,35.00
2018-12-26T10:06:05.812Z,32.20
2018-12-26T10:08:35.263Z,36.37
2018-12-26T10:11:04.620Z,30.00
2018-12-26T10:13:34.170Z,35.93
2018-12-26T10:16:03.445Z,35.37
2018-12-26T10:18:32.808Z,36.57
2018-12-26T10:21:02.266Z,36.93
2018-12-26T10:23:31.551Z,38.57
2018-12-26T10:26:00.857Z,36.50
2018-12-26T10:28:30.230Z,37.07
2018-12-26T10:30:59.597Z,33.53
2018-12-26T10:33:29.211Z,36.70
2018-12-26T10:35:58.578Z,36.53
2018-12-26T10:38:28.017Z,37.60
2018-12-26T10:40:57.426Z,37.47
2018-12-26T10:43:26.816Z,36.93
2018-12-26T10:45:56.132Z,39.70
2018-12-26T10:48:25.441Z,36.73
2018-12-26T10:50:54.903Z,33.50
2018-12-26T10:53:24.288Z,38.47
2018-12-26T10:55:53.741Z,39.23
2018-12-26T10:58:23.545Z,33.43
2018-12-26T11:00:52.944Z,38.50
2018-12-26T11:03:22.307Z,40.20
2018-12-26T11:05:51.920Z,37.67
2018-12-26T11:08:21.303Z,38.17
2018-12-26T11:10:50.596Z,36.13
2018-12-26T11:13:20.066Z,39.20
2018-12-26T11:15:49.416Z,39.50
2018-12-26T11:18:19.116Z,38.50
2018-12-26T11:20:48.424Z,39.50
2018-12-26T11:23:17.998Z,37.67
2018-12-26T11:25:47.441Z,40.43
2018-12-26T11:28:16.993Z,36.87
2018-12-26T11:30:46.376Z,34.93
2018-12-26T11:33:15.747Z,39.70
2018-12-26T11:35:45.170Z,37.93
2018-12-26T11:38:14.539Z,41.93
2018-12-26T11:40:43.856Z,39.47
2018-12-26T11:43:13.431Z,31.93
2018-12-26T11:45:42.862Z,42.33
2018-12-26T11:48:12.293Z,39.33
2018-12-26T11:50:41.775Z,34.47
2018-12-26T11:53:11.078Z,34.50
2018-12-26T11:55:40.485Z,35.00
2018-12-26T11:58:09.883Z,33.50
2018-12-26T12:00:39.245Z,33.30
2018-12-26T12:03:08.736Z,36.13
2018-12-26T12:05:38.243Z,34.77
2018-12-26T12:08:07.531Z,34.77
2018-12-26T12:10:36.859Z,28.50
2018-12-26T12:13:06.280Z,29.03
2018-12-26T12:15:35.719Z,27.40
2018-12-26T12:18:05.133Z,36.30
2018-12-26T12:20:34.519Z,34.13
2018-12-26T12:23:03.946Z,33.77
2018-12-26T12:25:33.386Z,32.23
2018-12-26T12:28:02.963Z,34.07
2018-12-26T12:30:32.442Z,35.93
2018-12-26T12:33:01.831Z,37.53
2018-12-26T12:35:31.395Z,32.77
2018-12-26T12:38:00.865Z,32.33
2018-12-26T12:40:30.275Z,35.47
2018-12-26T12:42:59.881Z,35.47
2018-12-26T12:45:29.408Z,35.43
2018-12-26T12:47:59.074Z,33.87
2018-12-26T12:50:28.463Z,40.47
2018-12-26T12:52:57.840Z,36.53
2018-12-26T12:55:27.270Z,41.37
2018-12-26T12:57:56.735Z,34.13
2018-12-26T13:00:26.093Z,41.33
2018-12-26T13:03:00.344Z,36.70
2018-12-26T13:05:26.955Z,37.60
2018-12-26T13:07:56.364Z,39.43
2018-12-26T13:10:25.663Z,39.23
2018-12-26T13:12:55.070Z,38.33
2018-12-26T13:15:24.715Z,39.03
2018-12-26T13:17:54.098Z,36.03
2018-12-26T13:20:24.467Z,39.23
2018-12-26T13:22:53.772Z,36.83
2018-12-26T13:25:23.143Z,35.07
2018-12-26T13:27:52.503Z,39.80
2018-12-26T13:30:21.989Z,34.13
2018-12-26T13:32:51.409Z,36.17
2018-12-26T13:35:20.812Z,41.23
2018-12-26T13:37:50.160Z,43.20
2018-12-26T13:40:21.046Z,42.43
2018-12-26T13:42:50.574Z,47.73
2018-12-26T13:45:19.978Z,44.03
2018-12-26T13:47:49.264Z,55.60
2018-12-26T13:50:18.741Z,39.60
2018-12-26T13:52:48.100Z,39.40
2018-12-26T13:55:17.376Z,36.17
2018-12-26T13:57:49.674Z,38.53
2018-12-26T14:00:19.187Z,40.67
2018-12-26T14:02:48.578Z,41.10
2018-12-26T14:05:17.883Z,41.00
2018-12-26T14:07:47.264Z,38.80
2018-12-26T14:10:16.803Z,38.83
2018-12-26T14:12:46.237Z,39.23
2018-12-26T14:15:15.556Z,40.97
2018-12-26T14:17:45.125Z,40.07
2018-12-26T14:20:14.649Z,37.37
2018-12-26T14:22:43.965Z,41.00
2018-12-26T14:25:13.425Z,39.40
2018-12-26T14:27:42.835Z,39.63
2018-12-26T14:30:12.253Z,40.83
2018-12-26T14:32:41.629Z,38.83
2018-12-26T14:35:11.159Z,40.03
2018-12-26T14:37:40.657Z,42.47
2018-12-26T14:40:09.889Z,41.20
2018-12-26T14:42:39.284Z,40.50
2018-12-26T14:45:08.732Z,40.17
2018-12-26T14:47:38.208Z,40.50
2018-12-26T14:50:08.204Z,42.00
2018-12-26T14:52:38.058Z,38.53
2018-12-26T14:55:07.423Z,42.43
2018-12-26T14:57:37.035Z,42.37
2018-12-26T15:00:07.088Z,39.27
2018-12-26T15:02:36.561Z,44.60
2018-12-26T15:05:06.127Z,45.60
2018-12-26T15:07:35.544Z,48.83
2018-12-26T15:10:05.360Z,49.40
2018-12-26T15:12:35.020Z,43.13
2018-12-26T15:15:04.807Z,44.57
2018-12-26T15:17:34.211Z,47.70
2018-12-26T15:20:03.533Z,46.83
2018-12-26T15:22:33.006Z,44.23
2018-12-26T15:25:02.353Z,45.77
2018-12-26T15:27:31.813Z,45.07
2018-12-26T15:30:01.067Z,45.07
2018-12-26T15:32:30.496Z,38.13
2018-12-26T15:34:59.754Z,43.97
2018-12-26T15:37:29.121Z,45.63
2018-12-26T15:39:58.498Z,43.83
2018-12-26T15:42:27.872Z,45.10
2018-12-26T15:44:57.239Z,39.27
2018-12-26T15:47:26.543Z,41.80
2018-12-26T15:49:55.979Z,40.60
2018-12-26T15:52:28.091Z,46.00
2018-12-26T15:54:57.402Z,46.30
2018-12-26T15:57:26.854Z,46.97
2018-12-26T15:59:56.198Z,42.60
2018-12-26T16:02:25.524Z,45.93
2018-12-26T16:04:54.808Z,44.47
2018-12-26T16:07:24.165Z,44.03
2018-12-26T16:09:53.528Z,48.00
2018-12-26T16:12:22.959Z,45.70
2018-12-26T16:14:52.248Z,51.87
2018-12-26T16:17:21.628Z,55.20
2018-12-26T16:19:51.006Z,47.73
2018-12-26T16:22:20.700Z,50.03
2018-12-26T16:24:50.152Z,49.47
2018-12-26T16:27:19.483Z,52.67
2018-12-26T16:29:48.932Z,48.73
2018-12-26T16:32:18.322Z,52.00
2018-12-26T16:34:48.306Z,48.60
2018-12-26T16:37:17.744Z,41.10
2018-12-26T16:39:47.112Z,47.07
2018-12-26T16:42:17.033Z,44.77
2018-12-26T16:44:46.560Z,47.97
2018-12-26T16:47:15.919Z,46.93
2018-12-26T16:49:45.274Z,50.70
2018-12-26T16:52:14.663Z,42.80
2018-12-26T16:54:44.186Z,45.37
2018-12-26T16:57:13.601Z,47.23
2018-12-26T16:59:43.111Z,46.43
2018-12-26T17:02:12.395Z,37.93
2018-12-26T17:04:42.061Z,48.00
2018-12-26T17:07:11.728Z,47.10
2018-12-26T17:09:41.116Z,49.40
2018-12-26T17:12:10.430Z,39.67
2018-12-26T17:14:39.976Z,44.67
2018-12-26T17:17:09.317Z,46.77
2018-12-26T17:19:38.927Z,52.70
2018-12-26T17:22:08.491Z,48.07
2018-12-26T17:24:37.839Z,50.67
2018-12-26T17:27:07.532Z,50.60
2018-12-26T17:29:38.840Z,52.60
2018-12-26T17:32:08.308Z,53.73
2018-12-26T17:34:37.999Z,52.73
2018-12-26T17:37:07.355Z,50.33
2018-12-26T17:39:36.710Z,48.60
2018-12-26T17:42:06.171Z,52.03
2018-12-26T17:44:36.047Z,48.43
2018-12-26T17:47:06.704Z,49.03
2018-12-26T17:49:36.042Z,50.60
2018-12-26T17:52:05.472Z,51.40
2018-12-26T17:54:50.921Z,49.97
2018-12-26T17:57:34.546Z,45.03
2018-12-26T18:00:42.195Z,47.63
2018-12-26T18:03:11.638Z,44.53
2018-12-26T18:05:41.183Z,49.43
2018-12-26T18:08:10.591Z,46.80
2018-12-26T18:10:40.075Z,46.50
2018-12-26T18:13:09.365Z,47.80
2018-12-26T18:15:38.726Z,48.03
2018-12-26T18:18:08.103Z,53.07
2018-12-26T18:20:37.547Z,52.80
2018-12-26T18:23:06.947Z,48.90
2018-12-26T18:25:36.464Z,49.03
2018-12-26T18:28:05.813Z,48.73
2018-12-26T18:30:35.198Z,46.00
2018-12-26T18:33:04.728Z,44.17
2018-12-26T18:35:34.018Z,47.23
2018-12-26T18:38:04.338Z,47.17
2018-12-26T18:40:33.675Z,46.73
2018-12-26T18:43:02.948Z,50.93
2018-12-26T18:45:32.321Z,48.83
2018-12-26T18:48:01.617Z,45.03
2018-12-26T18:50:31.261Z,43.07
2018-12-26T18:53:00.746Z,44.17
2018-12-26T18:55:30.130Z,46.07
2018-12-26T18:57:59.483Z,44.17
2018-12-26T19:00:28.851Z,48.80
2018-12-26T19:02:58.298Z,45.23
2018-12-26T19:05:27.689Z,48.10
2018-12-26T19:07:57.128Z,47.30
2018-12-26T19:10:26.533Z,44.30
2018-12-26T19:12:56.057Z,49.17
2018-12-26T19:15:25.411Z,49.60
2018-12-26T19:17:54.744Z,44.40
2018-12-26T19:20:25.582Z,46.13
2018-12-26T19:22:54.919Z,47.33
2018-12-26T19:25:24.743Z,39.47
2018-12-26T19:27:54.244Z,45.23
2018-12-26T19:30:23.707Z,41.40
2018-12-26T19:32:53.083Z,36.97
2018-12-26T19:35:22.575Z,37.03
2018-12-26T19:37:51.969Z,42.37
2018-12-26T19:40:21.569Z,44.40
2018-12-26T19:42:51.243Z,36.77
2018-12-26T19:45:32.661Z,40.53
2018-12-26T19:48:02.063Z,41.93
2018-12-26T19:50:31.402Z,39.60
2018-12-26T19:53:00.737Z,38.50
2018-12-26T19:55:30.175Z,41.67
2018-12-26T19:57:59.543Z,41.70
2018-12-26T20:00:28.869Z,39.30
2018-12-26T20:02:58.231Z,44.17
2018-12-26T20:05:27.578Z,43.00
2018-12-26T20:07:56.933Z,42.10
2018-12-26T20:10:26.373Z,38.23
2018-12-26T20:12:55.767Z,34.90
2018-12-26T20:15:25.292Z,38.37
2018-12-26T20:17:54.679Z,38.27
2018-12-26T20:20:24.078Z,38.10
2018-12-26T20:22:53.878Z,39.23
2018-12-26T20:25:25.042Z,38.77
2018-12-26T20:27:54.345Z,39.13
2018-12-26T20:30:25.170Z,38.00
2018-12-26T20:32:54.585Z,36.63
2018-12-26T20:35:25.899Z,40.37
2018-12-26T20:37:55.223Z,38.73
2018-12-26T20:40:24.804Z,41.50
2018-12-26T20:42:54.254Z,41.73
2018-12-26T20:45:23.545Z,40.23
2018-12-26T20:47:52.865Z,38.17
2018-12-26T20:50:22.155Z,40.10
2018-12-26T20:52:51.696Z,41.57
2018-12-26T20:55:21.173Z,38.57
2018-12-26T20:57:50.635Z,39.97
2018-12-26T21:00:19.942Z,41.70
2018-12-26T21:02:49.353Z,42.67
2018-12-26T21:05:18.746Z,38.03
2018-12-26T21:07:48.202Z,38.33
2018-12-26T21:10:17.679Z,37.87
2018-12-26T21:12:46.989Z,35.33
2018-12-26T21:15:16.542Z,38.50
2018-12-26T21:17:47.144Z,39.13
2018-12-26T21:20:16.563Z,41.47
2018-12-26T21:22:46.094Z,38.07
2018-12-26T21:25:15.465Z,38.13
2018-12-26T21:27:44.930Z,37.00
2018-12-26T21:30:15.846Z,35.43
2018-12-26T21:32:45.280Z,37.93
2018-12-26T21:35:14.510Z,28.03
2018-12-26T21:37:44.035Z,40.23
2018-12-26T21:40:13.248Z,33.40
2018-12-26T21:42:42.666Z,39.53
2018-12-26T21:45:12.752Z,38.13
2018-12-26T21:47:42.154Z,37.47
2018-12-26T21:50:13.093Z,37.43
2018-12-26T21:52:42.603Z,39.33
2018-12-26T21:55:12.007Z,36.13
2018-12-26T21:57:41.372Z,40.90
2018-12-26T22:00:11.250Z,39.10
2018-12-26T22:02:40.575Z,37.97
2018-12-26T22:05:10.014Z,41.10
2018-12-26T22:07:39.337Z,43.63
2018-12-26T22:10:08.867Z,37.93
2018-12-26T22:12:38.392Z,41.13
2018-12-26T22:15:08.462Z,40.10
2018-12-26T22:17:37.972Z,39.53
2018-12-26T22:20:08.451Z,41.40
2018-12-26T22:22:37.955Z,32.90
2018-12-26T22:25:07.375Z,44.17
2018-12-26T22:27:36.780Z,32.33
2018-12-26T22:30:09.303Z,33.00
2018-12-26T22:32:38.321Z,37.07
2018-12-26T22:35:07.678Z,32.73
2018-12-26T22:37:36.980Z,40.87
2018-12-26T22:40:08.314Z,31.73
2018-12-26T22:42:37.680Z,38.00
2018-12-26T22:45:07.207Z,38.00
2018-12-26T22:47:36.441Z,40.17
2018-12-26T22:50:06.345Z,39.43
2018-12-26T22:52:35.715Z,39.57
2018-12-26T22:55:05.555Z,44.30
2018-12-26T22:57:34.963Z,41.90
2018-12-26T23:00:05.546Z,37.07
2018-12-26T23:02:38.861Z,39.40
2018-12-26T23:05:06.464Z,36.87
2018-12-26T23:07:35.950Z,35.97
2018-12-26T23:10:05.508Z,38.10
2018-12-26T23:12:34.844Z,38.13
2018-12-26T23:15:06.879Z,39.40
2018-12-26T23:17:36.276Z,37.13
2018-12-26T23:20:05.911Z,34.40
2018-12-26T23:22:35.266Z,38.07
2018-12-26T23:25:05.284Z,39.77
2018-12-26T23:27:34.641Z,38.47
2018-12-26T23:30:04.698Z,42.30
2018-12-26T23:32:34.472Z,42.30
2018-12-26T23:35:03.703Z,41.87
2018-12-26T23:37:33.579Z,40.10
2018-12-26T23:40:03.112Z,39.90
2018-12-26T23:42:32.418Z,39.30
2018-12-26T23:45:01.773Z,42.60
2018-12-26T23:47:31.148Z,40.93
2018-12-26T23:50:00.736Z,41.17
2018-12-26T23:52:30.240Z,37.07
2018-12-26T23:54:59.537Z,40.40
2018-12-26T23:57:28.993Z,41.77
2018-12-26T23:59:58.362Z,37.93
